X  Close Metar Aviation Weather Data     CYYC Calgary International
Temperature
-8°C Temperature
-11°C Dewpoint
79% Humidity



Wind
10 KM/H
6 MPH
3 M/S
5 KTS



170°
South
Current Conditions

Partly Cloudy Partly Cloudy
Pressure 1010.82 (hPa) - 29.85 (inHg)
Visibility 15 (mile) - 24.1 (km)
Airport
Airport-code CYYC

Location: Calgary International
Distance: 4 (km)

Metar:
CYYC 170900Z 17005KT 15SM FEW210 M08/M11 A2985 RMK CI1 CI TR SLP165

Time: 17-02-2020 02:00 MST